Terminal Aerodrome Forecast
Issued by NWS

Home | Current Version | Previous Version | Text Only | Print | Product List | Glossary On
Versions: 1 2 3 4 5 6 7 8 9 10 11 12
000
FTUS44 KTSA 250500
TAFRVS
TAF
KRVS 250532Z 2506/2606 25007KT P6SM BKN090
     FM251200 30012G20KT P6SM BKN080
     FM251600 33016G26KT P6SM OVC050
     FM260100 35005KT P6SM SKC=

USA.gov is the U.S. government's official web portal to all federal, state and local government web resources and services.